Chicago, IL (60617)

4:02 AM CDT on August 26, 2016 (GMT -0500)
Historic Pullman | | Change Station

Elev 623 ft 41.69 °N, 87.61 °W | Updated 19 seconds ago

Clear
Clear
67.1 °F
Feels Like 67.1 °F
N
0.0
Wind Variable Wind from SSE

Today
High -- | Low -- °F
--% Chance of Precip.
Yesterday
High -- | Low -- °F
Precip. -- in
Pressure 30.11 in
Visibility 5.0 miles
Clouds Clear
Dew Point 65 °F
Humidity 94%
Rainfall 0.00 in
Snow Depth Not available.
6:10 AM 7:32 PM
Last Quarter, 36% visible
METAR KGYY 260855Z AUTO 36004KT 5SM BR CLR 19/19 A3011 RMK AO2 T01910191
Pressure 30.11 in
Visibility 5.0 miles
Clouds Clear
Dew Point 65 °F
Humidity 94%
Rainfall 0.00 in
Snow Depth Not available.
6:10 AM 7:32 PM
Last Quarter, 36% visible
METAR KGYY 260855Z AUTO 36004KT 5SM BR CLR 19/19 A3011 RMK AO2 T01910191

10-Day Weather Forecast

Almanac

Astronomy

Aug. 26, 2016 Rise Set
Actual Time
Civil Twilight
Nautical Twilight
Astronomical Twilight
Moon
Length of Visible Light
Length of Day
Tomorrow will be .
, % of the Moon is Illuminated

Today's Extremes

State Highs State Lows

Community

WunderPhotos

Upload Photos

1,935,062 photos uploaded!

WunderBlog® & News

Nearby

Air Quality

  Air Quality AQ Index Pollutant
Not available.

Snow Depth

Station Depth Elevation

Earthquake Activity

City Distance Mag. Time & Date
Minimum magnitude displayed is 2.5.

Coastal Water Temperatures

Place Temperature

Stations

Nearby Weather Stations

Station Location Temp. Windchill Dew Point Humidity Wind Precip. Elev Updated Type
                   

Watches & Warnings

There are currently no watches in effect.